createdAt,value
2019-05-19T00:01:10.395Z,2.70
2019-05-19T00:03:43.127Z,3.27
2019-05-19T00:06:17.028Z,2.60
2019-05-19T00:08:50.168Z,2.80
2019-05-19T00:11:22.618Z,2.85
2019-05-19T00:13:54.968Z,3.27
2019-05-19T00:16:27.924Z,3.20
2019-05-19T00:19:00.483Z,3.55
2019-05-19T00:21:33.186Z,3.08
2019-05-19T00:24:06.471Z,2.62
2019-05-19T00:26:39.125Z,3.70
2019-05-19T00:29:12.317Z,2.98
2019-05-19T00:34:17.505Z,2.92
2019-05-19T00:36:49.945Z,3.50
2019-05-19T00:39:23.393Z,3.27
2019-05-19T00:41:56.442Z,7.00
2019-05-19T00:44:28.955Z,12.63
2019-05-19T00:47:02.656Z,10.32
2019-05-19T00:49:41.239Z,4.62
2019-05-19T00:52:11.143Z,3.95
2019-05-19T00:57:15.461Z,3.30
2019-05-19T00:59:50.182Z,4.12
2019-05-19T01:02:23.848Z,3.85
2019-05-19T01:04:56.270Z,3.27
2019-05-19T01:07:29.081Z,3.40
2019-05-19T01:10:01.833Z,3.98
2019-05-19T01:12:34.492Z,3.60
2019-05-19T01:15:08.018Z,3.72
2019-05-19T01:17:40.417Z,4.12
2019-05-19T01:20:13.123Z,3.27
2019-05-19T01:22:44.941Z,3.25
2019-05-19T01:25:18.621Z,3.77
2019-05-19T01:27:51.447Z,3.40
2019-05-19T01:30:25.014Z,3.65
2019-05-19T01:32:58.934Z,3.35
2019-05-19T01:35:32.074Z,3.33
2019-05-19T01:38:04.876Z,2.92
2019-05-19T01:40:37.373Z,3.35
2019-05-19T01:43:11.588Z,3.15
2019-05-19T01:45:44.881Z,3.37
2019-05-19T01:48:17.554Z,3.42
2019-05-19T01:50:49.857Z,3.87
2019-05-19T01:53:22.719Z,3.60
2019-05-19T01:55:55.213Z,3.60
2019-05-19T01:58:28.926Z,3.30
2019-05-19T02:01:01.678Z,3.70
2019-05-19T02:03:34.453Z,4.05
2019-05-19T02:06:07.281Z,3.75
2019-05-19T02:08:39.368Z,3.50
2019-05-19T02:11:12.533Z,3.77
2019-05-19T02:13:44.546Z,3.00
2019-05-19T02:16:17.067Z,3.72
2019-05-19T02:18:49.405Z,3.70
2019-05-19T02:21:22.396Z,3.85
2019-05-19T02:23:54.509Z,3.37
2019-05-19T02:26:27.399Z,3.90
2019-05-19T02:28:59.808Z,3.40
2019-05-19T02:31:32.188Z,3.47
2019-05-19T02:34:05.074Z,3.27
2019-05-19T02:36:37.160Z,3.37
2019-05-19T02:39:10.548Z,3.37
2019-05-19T02:44:17.737Z,3.10
2019-05-19T02:46:53.465Z,3.37
2019-05-19T02:49:30.162Z,3.58
2019-05-19T02:52:05.456Z,3.58
2019-05-19T02:54:38.706Z,2.87
2019-05-19T02:57:11.449Z,2.90
2019-05-19T02:59:44.345Z,3.33
2019-05-19T03:02:16.349Z,3.55
2019-05-19T03:04:49.096Z,3.80
2019-05-19T03:07:21.873Z,3.55
2019-05-19T03:09:54.049Z,3.75
2019-05-19T03:12:27.046Z,3.65
2019-05-19T03:15:00.433Z,4.22
2019-05-19T03:17:33.149Z,3.30
2019-05-19T03:20:05.721Z,3.62
2019-05-19T03:22:37.999Z,3.80
2019-05-19T03:25:11.423Z,2.37
2019-05-19T03:27:44.688Z,3.40
2019-05-19T03:30:45.705Z,3.33
2019-05-19T03:33:22.553Z,3.62
2019-05-19T03:35:54.985Z,3.47
2019-05-19T03:38:26.834Z,3.40
2019-05-19T03:40:59.797Z,3.33
2019-05-19T03:43:31.869Z,3.80
2019-05-19T03:46:04.891Z,3.98
2019-05-19T03:48:37.936Z,4.17
2019-05-19T03:51:27.507Z,3.80
2019-05-19T03:53:45.121Z,3.90
2019-05-19T03:56:20.062Z,4.20
2019-05-19T03:58:53.593Z,4.15
2019-05-19T04:01:28.333Z,3.90
2019-05-19T04:04:02.470Z,4.03
2019-05-19T04:06:35.136Z,3.85
2019-05-19T04:09:09.807Z,3.58
2019-05-19T04:11:42.654Z,3.45
2019-05-19T04:14:15.583Z,2.47
2019-05-19T04:16:51.225Z,3.30
2019-05-19T04:19:23.911Z,4.33
2019-05-19T04:21:56.415Z,4.25
2019-05-19T04:24:29.094Z,4.65
2019-05-19T04:27:01.776Z,4.03
2019-05-19T04:29:34.830Z,3.90
2019-05-19T04:32:08.882Z,4.08
2019-05-19T04:34:41.807Z,4.47
2019-05-19T04:37:14.175Z,4.85
2019-05-19T04:39:46.972Z,4.10
2019-05-19T04:42:19.652Z,4.15
2019-05-19T04:44:52.403Z,4.62
2019-05-19T04:47:24.814Z,4.78
2019-05-19T04:49:58.649Z,4.85
2019-05-19T04:52:31.059Z,5.30
2019-05-19T04:55:04.083Z,5.50
2019-05-19T04:57:37.375Z,3.98
2019-05-19T05:00:11.004Z,4.83
2019-05-19T05:02:43.381Z,5.10
2019-05-19T05:05:16.254Z,4.50
2019-05-19T05:07:50.033Z,4.28
2019-05-19T05:10:23.232Z,4.90
2019-05-19T05:12:56.316Z,5.33
2019-05-19T05:17:59.845Z,4.65
2019-05-19T05:20:32.195Z,5.58
2019-05-19T05:23:04.309Z,6.08
2019-05-19T05:25:39.159Z,5.80
2019-05-19T05:28:13.302Z,5.40
2019-05-19T05:30:45.857Z,5.60
2019-05-19T05:33:18.186Z,6.10
2019-05-19T05:35:50.577Z,5.35
2019-05-19T05:38:23.047Z,6.12
2019-05-19T05:40:56.041Z,6.83
2019-05-19T05:43:29.143Z,7.60
2019-05-19T05:46:01.686Z,8.20
2019-05-19T05:48:33.811Z,8.87
2019-05-19T05:51:05.907Z,7.75
2019-05-19T05:53:39.087Z,8.88
2019-05-19T05:56:12.667Z,8.88
2019-05-19T05:58:47.488Z,8.23
2019-05-19T06:01:20.905Z,8.75
2019-05-19T06:03:55.533Z,8.18
2019-05-19T06:06:28.317Z,8.33
2019-05-19T06:09:01.982Z,8.80
2019-05-19T06:11:34.712Z,8.90
2019-05-19T06:14:07.209Z,7.78
2019-05-19T06:16:39.733Z,7.90
2019-05-19T06:19:12.080Z,8.38
2019-05-19T06:21:45.061Z,8.43
2019-05-19T06:24:18.202Z,9.03
2019-05-19T06:29:21.813Z,7.80
2019-05-19T06:31:58.690Z,8.68
2019-05-19T06:34:31.789Z,9.40
2019-05-19T06:37:04.752Z,8.55
2019-05-19T06:42:09.922Z,7.45
2019-05-19T06:47:13.517Z,8.08
2019-05-19T06:49:46.667Z,9.13
2019-05-19T06:52:19.400Z,8.93
2019-05-19T06:54:52.350Z,9.10
2019-05-19T06:59:55.287Z,8.98
2019-05-19T07:02:27.737Z,10.55
2019-05-19T07:05:00.084Z,10.53
2019-05-19T07:07:34.515Z,11.50
2019-05-19T07:10:07.766Z,10.37
2019-05-19T07:15:23.380Z,9.65
2019-05-19T07:17:52.971Z,10.93
2019-05-19T07:20:27.707Z,11.40
2019-05-19T07:23:00.670Z,10.53
2019-05-19T07:25:34.173Z,9.93
2019-05-19T07:28:06.914Z,10.37
2019-05-19T07:30:39.280Z,8.95
2019-05-19T07:33:12.241Z,9.30
2019-05-19T07:35:44.684Z,8.88
2019-05-19T07:38:16.758Z,9.13
2019-05-19T07:40:49.299Z,9.85
2019-05-19T07:43:21.525Z,9.65
2019-05-19T07:45:53.623Z,9.15
2019-05-19T07:48:27.526Z,9.98
2019-05-19T07:50:59.850Z,9.20
2019-05-19T07:53:44.353Z,8.93
2019-05-19T07:56:18.951Z,9.13
2019-05-19T07:58:51.703Z,9.65
2019-05-19T08:01:24.660Z,9.35
2019-05-19T08:03:56.856Z,9.83
2019-05-19T08:06:32.144Z,9.45
2019-05-19T08:09:12.894Z,9.50
2019-05-19T08:11:45.948Z,8.88
2019-05-19T08:14:17.764Z,9.03
2019-05-19T08:16:50.464Z,8.58
2019-05-19T08:19:22.302Z,9.38
2019-05-19T08:21:55.144Z,9.50
2019-05-19T08:24:27.246Z,9.58
2019-05-19T08:26:59.452Z,8.48
2019-05-19T08:29:32.749Z,8.70
2019-05-19T08:32:04.603Z,7.17
2019-05-19T08:34:37.904Z,7.83
2019-05-19T08:37:17.967Z,9.10
2019-05-19T08:39:51.315Z,7.90
2019-05-19T08:42:24.011Z,8.13
2019-05-19T08:44:56.111Z,7.93
2019-05-19T08:47:28.583Z,8.25
2019-05-19T08:52:32.286Z,7.80
2019-05-19T08:55:05.078Z,8.33
2019-05-19T08:57:37.867Z,7.10
2019-05-19T09:00:10.947Z,6.73
2019-05-19T09:02:43.869Z,7.53
2019-05-19T09:05:16.462Z,7.70
2019-05-19T09:07:50.216Z,7.07
2019-05-19T09:10:22.665Z,6.27
2019-05-19T09:12:55.450Z,7.10
2019-05-19T09:15:28.217Z,7.53
2019-05-19T09:18:01.172Z,6.77
2019-05-19T09:20:33.882Z,7.30
2019-05-19T09:23:06.666Z,7.10
2019-05-19T09:25:39.487Z,7.00
2019-05-19T09:28:11.918Z,6.73
2019-05-19T09:30:44.105Z,6.67
2019-05-19T09:33:16.702Z,7.15
2019-05-19T09:35:49.470Z,6.63
2019-05-19T09:38:21.560Z,7.73
2019-05-19T09:40:54.752Z,7.08
2019-05-19T09:43:28.118Z,6.12
2019-05-19T09:46:00.259Z,6.45
2019-05-19T09:48:32.789Z,6.40
2019-05-19T09:51:05.315Z,7.07
2019-05-19T09:53:37.540Z,6.57
2019-05-19T09:58:42.110Z,5.80
2019-05-19T10:01:14.005Z,6.15
2019-05-19T10:06:21.774Z,5.50
2019-05-19T10:10:03.370Z,5.50
2019-05-19T10:12:38.302Z,4.20
2019-05-19T10:15:12.384Z,4.72
2019-05-19T10:17:44.595Z,5.12
2019-05-19T10:20:18.366Z,5.33
2019-05-19T10:22:52.381Z,6.33
2019-05-19T10:25:24.983Z,5.58
2019-05-19T10:27:57.950Z,5.15
2019-05-19T10:30:30.410Z,4.97
2019-05-19T10:33:02.202Z,5.53
2019-05-19T10:38:05.641Z,5.17
2019-05-19T10:40:38.366Z,5.20
2019-05-19T10:43:10.523Z,5.37
2019-05-19T10:45:44.214Z,5.60
2019-05-19T10:48:16.503Z,4.85
2019-05-19T10:50:48.739Z,5.00
2019-05-19T10:53:21.305Z,5.28
2019-05-19T10:55:53.852Z,5.12
2019-05-19T10:58:26.685Z,5.72
2019-05-19T11:00:59.479Z,5.78
2019-05-19T11:03:31.381Z,5.70
2019-05-19T11:06:03.602Z,5.40
2019-05-19T11:08:36.325Z,5.65
2019-05-19T11:11:09.041Z,5.57
2019-05-19T11:13:41.292Z,6.08
2019-05-19T11:16:13.771Z,5.80
2019-05-19T11:18:45.617Z,5.25
2019-05-19T11:21:18.373Z,5.60
2019-05-19T11:23:51.092Z,5.97
2019-05-19T11:26:23.991Z,6.45
2019-05-19T11:28:55.731Z,5.87
2019-05-19T11:31:27.893Z,5.45
2019-05-19T11:34:00.584Z,5.17
2019-05-19T11:36:32.790Z,5.58
2019-05-19T11:39:07.269Z,5.58
2019-05-19T11:41:40.599Z,5.58
2019-05-19T11:44:12.743Z,5.80
2019-05-19T11:46:46.234Z,5.78
2019-05-19T11:49:18.383Z,5.30
2019-05-19T11:51:51.815Z,5.20
2019-05-19T11:54:23.628Z,5.62
2019-05-19T11:56:57.035Z,5.65
2019-05-19T11:59:29.729Z,5.85
2019-05-19T12:02:02.079Z,5.17
2019-05-19T12:04:34.477Z,5.63
2019-05-19T12:07:06.653Z,5.25
2019-05-19T12:09:39.430Z,5.20
2019-05-19T12:12:11.218Z,5.53
2019-05-19T12:14:43.165Z,5.22
2019-05-19T12:17:15.638Z,5.70
2019-05-19T12:19:47.726Z,5.55
2019-05-19T12:22:20.151Z,4.80
2019-05-19T12:24:52.573Z,5.45
2019-05-19T12:27:25.305Z,5.22
2019-05-19T12:29:57.110Z,5.10
2019-05-19T12:32:29.267Z,4.70
2019-05-19T12:35:01.700Z,4.33
2019-05-19T12:37:34.180Z,5.33
2019-05-19T12:40:07.307Z,4.72
2019-05-19T12:42:39.917Z,4.90
2019-05-19T12:45:13.093Z,4.83
2019-05-19T12:47:45.764Z,4.08
2019-05-19T12:50:20.785Z,3.87
2019-05-19T12:52:53.351Z,4.17
2019-05-19T12:55:26.462Z,3.55
2019-05-19T12:57:58.983Z,4.35
2019-05-19T13:00:31.378Z,4.03
2019-05-19T13:03:03.226Z,4.37
2019-05-19T13:05:35.728Z,3.83
2019-05-19T13:08:07.622Z,4.35
2019-05-19T13:10:40.240Z,3.90
2019-05-19T13:13:12.526Z,4.20
2019-05-19T13:15:45.484Z,4.30
2019-05-19T13:18:18.290Z,4.50
2019-05-19T13:20:50.446Z,4.37
2019-05-19T13:23:23.162Z,3.90
2019-05-19T13:25:55.270Z,3.62
2019-05-19T13:28:27.073Z,3.60
2019-05-19T13:30:59.909Z,4.58
2019-05-19T13:33:32.347Z,3.98
2019-05-19T13:36:04.806Z,2.92
2019-05-19T13:38:37.437Z,2.92
2019-05-19T13:41:09.489Z,2.55
2019-05-19T13:43:42.447Z,2.87
2019-05-19T13:46:15.178Z,2.65
2019-05-19T13:48:47.487Z,2.40
2019-05-19T13:51:19.825Z,2.42
2019-05-19T13:53:51.918Z,2.42
2019-05-19T13:56:24.465Z,2.47
2019-05-19T13:58:57.182Z,2.85
2019-05-19T14:01:29.499Z,2.77
2019-05-19T14:04:01.883Z,3.22
2019-05-19T14:06:33.740Z,2.90
2019-05-19T14:09:06.354Z,2.85
2019-05-19T14:11:39.053Z,2.90
2019-05-19T14:14:11.711Z,3.05
2019-05-19T14:16:44.497Z,2.85
2019-05-19T14:19:19.495Z,3.55
2019-05-19T14:21:52.248Z,3.75
2019-05-19T14:24:24.608Z,3.37
2019-05-19T14:26:58.019Z,3.10
2019-05-19T14:29:30.001Z,2.75
2019-05-19T14:32:02.055Z,3.80
2019-05-19T14:34:34.447Z,3.60
2019-05-19T14:37:06.604Z,2.70
2019-05-19T14:39:38.580Z,3.08
2019-05-19T14:42:14.714Z,2.58
2019-05-19T14:44:46.703Z,3.40
2019-05-19T14:47:18.959Z,3.30
2019-05-19T14:49:51.264Z,3.22
2019-05-19T14:52:24.005Z,3.20
2019-05-19T14:54:56.943Z,3.27
2019-05-19T14:57:43.550Z,4.10
2019-05-19T15:00:03.732Z,4.03
2019-05-19T15:02:36.148Z,3.60
2019-05-19T15:05:08.857Z,3.90
2019-05-19T15:07:41.171Z,3.52
2019-05-19T15:10:15.617Z,3.57
2019-05-19T15:12:48.320Z,3.35
2019-05-19T15:15:20.729Z,3.92
2019-05-19T15:17:53.148Z,3.60
2019-05-19T15:20:25.392Z,4.03
2019-05-19T15:22:58.218Z,5.00
2019-05-19T15:25:30.431Z,4.50
2019-05-19T15:28:05.180Z,4.70
2019-05-19T15:30:36.465Z,4.72
2019-05-19T15:33:09.416Z,3.85
2019-05-19T15:35:42.349Z,4.70
2019-05-19T15:38:14.366Z,5.05
2019-05-19T15:40:46.250Z,5.00
2019-05-19T15:43:18.605Z,4.72
2019-05-19T15:45:51.285Z,5.50
2019-05-19T15:48:23.718Z,4.95
2019-05-19T15:50:55.663Z,4.95
2019-05-19T15:53:27.473Z,5.33
2019-05-19T15:55:59.269Z,4.50
2019-05-19T15:58:31.736Z,4.67
2019-05-19T16:01:04.318Z,4.28
2019-05-19T16:03:36.721Z,4.65
2019-05-19T16:06:09.518Z,4.40
2019-05-19T16:08:41.736Z,4.45
2019-05-19T16:11:13.540Z,4.60
2019-05-19T16:13:46.494Z,4.47
2019-05-19T16:16:18.654Z,4.50
2019-05-19T16:18:53.221Z,4.60
2019-05-19T16:21:24.824Z,4.25
2019-05-19T16:23:57.269Z,3.95
2019-05-19T16:26:29.926Z,4.20
2019-05-19T16:29:03.419Z,4.73
2019-05-19T16:31:35.929Z,4.47
2019-05-19T16:34:07.989Z,4.53
2019-05-19T16:36:40.515Z,4.45
2019-05-19T16:39:12.876Z,4.37
2019-05-19T16:41:44.788Z,4.47
2019-05-19T16:44:16.889Z,4.50
2019-05-19T16:46:49.377Z,4.40
2019-05-19T16:49:22.522Z,5.15
2019-05-19T16:51:54.900Z,5.05
2019-05-19T16:54:31.562Z,4.55
2019-05-19T16:57:03.894Z,4.87
2019-05-19T16:59:37.031Z,4.73
2019-05-19T17:02:09.411Z,4.92
2019-05-19T17:04:41.664Z,4.22
2019-05-19T17:07:13.760Z,4.58
2019-05-19T17:09:46.826Z,5.03
2019-05-19T17:12:18.928Z,4.70
2019-05-19T17:14:50.956Z,4.87
2019-05-19T17:17:24.185Z,4.22
2019-05-19T17:19:56.179Z,4.72
2019-05-19T17:25:00.429Z,4.15
2019-05-19T17:27:32.551Z,4.53
2019-05-19T17:32:36.002Z,4.42
2019-05-19T17:35:08.913Z,4.83
2019-05-19T17:37:40.743Z,4.28
2019-05-19T17:40:16.187Z,4.17
2019-05-19T17:42:48.619Z,4.33
2019-05-19T17:45:21.399Z,4.12
2019-05-19T17:47:57.616Z,4.45
2019-05-19T17:50:35.523Z,4.80
2019-05-19T17:53:08.527Z,4.30
2019-05-19T17:55:43.426Z,4.60
2019-05-19T17:58:16.080Z,4.40
2019-05-19T18:00:49.664Z,4.50
2019-05-19T18:03:23.513Z,4.43
2019-05-19T18:06:00.775Z,4.40
2019-05-19T18:08:33.783Z,4.47
2019-05-19T18:11:05.945Z,4.63
2019-05-19T18:13:40.102Z,4.47
2019-05-19T18:16:12.774Z,4.78
2019-05-19T18:18:45.409Z,4.37
2019-05-19T18:21:18.208Z,5.03
2019-05-19T18:23:50.596Z,4.40
2019-05-19T18:26:23.486Z,4.72
2019-05-19T18:28:59.475Z,5.62
2019-05-19T18:31:33.119Z,5.15
2019-05-19T18:34:05.194Z,4.73
2019-05-19T18:36:37.599Z,5.12
2019-05-19T18:39:10.551Z,4.80
2019-05-19T18:41:43.175Z,4.92
2019-05-19T18:44:15.697Z,5.37
2019-05-19T18:46:47.963Z,5.97
2019-05-19T18:49:20.054Z,5.50
2019-05-19T18:51:52.780Z,4.80
2019-05-19T18:54:25.747Z,5.37
2019-05-19T18:56:58.734Z,5.90
2019-05-19T18:59:46.075Z,5.50
2019-05-19T19:02:05.889Z,5.97
2019-05-19T19:04:38.253Z,5.47
2019-05-19T19:07:11.228Z,5.62
2019-05-19T19:09:43.740Z,6.20
2019-05-19T19:14:47.784Z,5.47
2019-05-19T19:19:51.251Z,5.28
2019-05-19T19:22:23.289Z,5.03
2019-05-19T19:24:55.958Z,5.35
2019-05-19T19:30:03.549Z,5.40
2019-05-19T19:32:33.617Z,6.20
2019-05-19T19:35:06.251Z,5.90
2019-05-19T19:37:38.056Z,5.72
2019-05-19T19:40:11.652Z,5.65
2019-05-19T19:42:44.269Z,5.42
2019-05-19T19:47:47.347Z,5.47
2019-05-19T19:50:20.118Z,5.45
2019-05-19T19:55:23.769Z,4.72
2019-05-19T19:57:56.034Z,4.05
2019-05-19T20:00:42.370Z,4.15
2019-05-19T20:03:14.698Z,4.50
2019-05-19T20:05:48.098Z,4.70
2019-05-19T20:08:20.227Z,4.97
2019-05-19T20:10:53.131Z,4.15
2019-05-19T20:13:26.654Z,3.87
2019-05-19T20:15:58.962Z,4.42
2019-05-19T20:18:31.770Z,4.20
2019-05-19T20:23:35.252Z,3.70
2019-05-19T20:26:08.152Z,3.67
2019-05-19T20:31:10.908Z,3.85
2019-05-19T20:33:44.148Z,4.17
2019-05-19T20:36:17.145Z,3.80
2019-05-19T20:38:50.069Z,4.00
2019-05-19T20:43:53.109Z,3.35
2019-05-19T20:46:25.655Z,3.98
2019-05-19T20:48:58.331Z,4.00
2019-05-19T20:51:33.256Z,3.35
2019-05-19T20:54:06.302Z,3.93
2019-05-19T20:56:40.071Z,4.30
2019-05-19T20:59:12.699Z,3.98
2019-05-19T21:01:45.288Z,4.42
2019-05-19T21:04:18.390Z,3.52
2019-05-19T21:06:50.747Z,4.17
2019-05-19T21:09:23.476Z,3.55
2019-05-19T21:11:56.139Z,3.62
2019-05-19T21:14:28.499Z,3.47
2019-05-19T21:17:01.230Z,3.65
2019-05-19T21:19:33.963Z,3.60
2019-05-19T21:22:06.350Z,3.52
2019-05-19T21:24:38.942Z,3.37
2019-05-19T21:27:11.610Z,2.95
2019-05-19T21:29:44.327Z,3.67
2019-05-19T21:32:17.050Z,3.87
2019-05-19T21:34:49.541Z,3.45
2019-05-19T21:37:22.221Z,3.58
2019-05-19T21:39:54.979Z,3.17
2019-05-19T21:42:27.302Z,4.08
2019-05-19T21:45:00.216Z,3.58
2019-05-19T21:47:32.052Z,3.70
2019-05-19T21:50:04.129Z,3.27
2019-05-19T21:52:36.958Z,3.20
2019-05-19T21:55:09.922Z,3.10
2019-05-19T21:57:46.647Z,3.27
2019-05-19T22:00:21.171Z,3.47
2019-05-19T22:02:53.924Z,4.10
2019-05-19T22:05:26.834Z,3.58
2019-05-19T22:10:39.739Z,3.50
2019-05-19T22:13:12.446Z,3.67
2019-05-19T22:15:45.030Z,3.37
2019-05-19T22:18:17.427Z,3.90
2019-05-19T22:20:50.393Z,3.65
2019-05-19T22:25:53.317Z,4.55
2019-05-19T22:28:26.199Z,3.87
2019-05-19T22:30:58.235Z,3.67
2019-05-19T22:33:31.020Z,4.08
2019-05-19T22:36:03.483Z,3.52
2019-05-19T22:38:36.225Z,4.15
2019-05-19T22:41:08.333Z,3.80
2019-05-19T22:43:41.138Z,3.93
2019-05-19T22:48:44.191Z,3.50
2019-05-19T22:51:16.848Z,4.95
2019-05-19T22:53:49.286Z,4.35
2019-05-19T22:56:21.902Z,4.53
2019-05-19T22:58:54.479Z,4.35
2019-05-19T23:01:26.781Z,4.17
2019-05-19T23:03:59.631Z,4.35
2019-05-19T23:06:32.454Z,5.25
2019-05-19T23:09:06.987Z,4.95
2019-05-19T23:11:40.032Z,5.53
2019-05-19T23:14:12.960Z,5.35
2019-05-19T23:16:45.118Z,5.20
2019-05-19T23:19:17.279Z,5.30
2019-05-19T23:21:49.408Z,5.63
2019-05-19T23:24:21.835Z,5.17
2019-05-19T23:26:53.976Z,5.70
2019-05-19T23:29:27.447Z,5.73
2019-05-19T23:32:07.122Z,5.78
2019-05-19T23:34:34.858Z,5.85
2019-05-19T23:37:07.721Z,4.80
2019-05-19T23:39:41.156Z,5.25
2019-05-19T23:42:14.269Z,7.47
2019-05-19T23:44:47.013Z,6.37
2019-05-19T23:47:19.095Z,6.75
2019-05-19T23:49:51.455Z,5.90
2019-05-19T23:52:24.392Z,6.55
2019-05-19T23:57:27.109Z,5.47
